sensor_id;sensor_type;location;lat;lon;timestamp;P1;durP1;ratioP1;P2;durP2;ratioP2
32228;SDS011;18717;48.034;11.186;2023-04-12T00:00:39;9.25;;;8.38;;
32228;SDS011;18717;48.034;11.186;2023-04-12T00:03:08;11.07;;;9.02;;
32228;SDS011;18717;48.034;11.186;2023-04-12T00:05:36;9.25;;;8.27;;
32228;SDS011;18717;48.034;11.186;2023-04-12T00:08:04;8.60;;;7.90;;
32228;SDS011;18717;48.034;11.186;2023-04-12T00:10:31;9.05;;;8.18;;
32228;SDS011;18717;48.034;11.186;2023-04-12T00:12:59;9.15;;;8.48;;
32228;SDS011;18717;48.034;11.186;2023-04-12T00:15:27;9.50;;;8.60;;
32228;SDS011;18717;48.034;11.186;2023-04-12T00:17:54;9.13;;;8.02;;
32228;SDS011;18717;48.034;11.186;2023-04-12T00:20:24;8.60;;;8.00;;
32228;SDS011;18717;48.034;11.186;2023-04-12T00:22:52;8.15;;;7.55;;
32228;SDS011;18717;48.034;11.186;2023-04-12T00:25:19;8.25;;;7.55;;
32228;SDS011;18717;48.034;11.186;2023-04-12T00:27:47;8.93;;;8.23;;
32228;SDS011;18717;48.034;11.186;2023-04-12T00:30:15;9.25;;;8.40;;
32228;SDS011;18717;48.034;11.186;2023-04-12T00:32:42;9.02;;;8.43;;
32228;SDS011;18717;48.034;11.186;2023-04-12T00:35:10;11.13;;;10.10;;
32228;SDS011;18717;48.034;11.186;2023-04-12T00:37:39;8.40;;;7.70;;
32228;SDS011;18717;48.034;11.186;2023-04-12T00:40:07;8.30;;;7.70;;
32228;SDS011;18717;48.034;11.186;2023-04-12T00:42:36;11.48;;;8.65;;
32228;SDS011;18717;48.034;11.186;2023-04-12T00:45:04;8.43;;;7.82;;
32228;SDS011;18717;48.034;11.186;2023-04-12T00:47:34;9.77;;;7.78;;
32228;SDS011;18717;48.034;11.186;2023-04-12T00:50:02;8.95;;;8.15;;
32228;SDS011;18717;48.034;11.186;2023-04-12T00:52:31;8.27;;;7.78;;
32228;SDS011;18717;48.034;11.186;2023-04-12T00:55:01;8.07;;;7.53;;
32228;SDS011;18717;48.034;11.186;2023-04-12T00:57:30;8.80;;;8.10;;
32228;SDS011;18717;48.034;11.186;2023-04-12T01:00:01;8.82;;;8.15;;
32228;SDS011;18717;48.034;11.186;2023-04-12T01:02:30;8.75;;;8.05;;
32228;SDS011;18717;48.034;11.186;2023-04-12T01:04:58;8.70;;;7.82;;
32228;SDS011;18717;48.034;11.186;2023-04-12T01:07:28;8.50;;;7.90;;
32228;SDS011;18717;48.034;11.186;2023-04-12T01:10:07;8.40;;;7.60;;
32228;SDS011;18717;48.034;11.186;2023-04-12T01:15:06;10.63;;;8.35;;
32228;SDS011;18717;48.034;11.186;2023-04-12T01:17:37;8.35;;;7.47;;
32228;SDS011;18717;48.034;11.186;2023-04-12T01:20:08;7.97;;;7.38;;
32228;SDS011;18717;48.034;11.186;2023-04-12T01:22:53;9.27;;;8.32;;
32228;SDS011;18717;48.034;11.186;2023-04-12T01:25:54;9.40;;;8.68;;
32228;SDS011;18717;48.034;11.186;2023-04-12T01:28:28;13.48;;;8.43;;
32228;SDS011;18717;48.034;11.186;2023-04-12T01:30:59;8.45;;;7.85;;
32228;SDS011;18717;48.034;11.186;2023-04-12T01:33:27;8.63;;;7.93;;
32228;SDS011;18717;48.034;11.186;2023-04-12T01:35:57;9.20;;;8.18;;
32228;SDS011;18717;48.034;11.186;2023-04-12T01:38:26;10.75;;;8.38;;
32228;SDS011;18717;48.034;11.186;2023-04-12T01:40:54;8.75;;;7.90;;
32228;SDS011;18717;48.034;11.186;2023-04-12T01:43:22;8.80;;;8.00;;
32228;SDS011;18717;48.034;11.186;2023-04-12T01:45:51;8.20;;;7.60;;
32228;SDS011;18717;48.034;11.186;2023-04-12T01:48:19;9.25;;;7.63;;
32228;SDS011;18717;48.034;11.186;2023-04-12T01:50:48;8.52;;;7.82;;
32228;SDS011;18717;48.034;11.186;2023-04-12T01:53:26;8.68;;;7.93;;
32228;SDS011;18717;48.034;11.186;2023-04-12T01:55:58;8.43;;;7.72;;
32228;SDS011;18717;48.034;11.186;2023-04-12T01:58:30;7.47;;;6.97;;
32228;SDS011;18717;48.034;11.186;2023-04-12T02:00:59;8.27;;;7.65;;
32228;SDS011;18717;48.034;11.186;2023-04-12T02:03:28;7.70;;;7.10;;
32228;SDS011;18717;48.034;11.186;2023-04-12T02:05:56;8.02;;;7.43;;
32228;SDS011;18717;48.034;11.186;2023-04-12T02:08:26;7.68;;;7.18;;
32228;SDS011;18717;48.034;11.186;2023-04-12T02:10:53;7.80;;;7.22;;
32228;SDS011;18717;48.034;11.186;2023-04-12T02:13:21;8.35;;;7.75;;
32228;SDS011;18717;48.034;11.186;2023-04-12T02:15:49;8.63;;;7.00;;
32228;SDS011;18717;48.034;11.186;2023-04-12T02:18:21;8.00;;;7.30;;
32228;SDS011;18717;48.034;11.186;2023-04-12T02:20:49;8.90;;;7.75;;
32228;SDS011;18717;48.034;11.186;2023-04-12T02:23:17;7.63;;;7.07;;
32228;SDS011;18717;48.034;11.186;2023-04-12T02:25:44;8.35;;;7.55;;
32228;SDS011;18717;48.034;11.186;2023-04-12T02:28:12;8.73;;;8.02;;
32228;SDS011;18717;48.034;11.186;2023-04-12T02:30:40;9.52;;;8.80;;
32228;SDS011;18717;48.034;11.186;2023-04-12T02:33:08;8.40;;;7.55;;
32228;SDS011;18717;48.034;11.186;2023-04-12T02:35:38;9.27;;;8.40;;
32228;SDS011;18717;48.034;11.186;2023-04-12T02:38:06;8.07;;;7.57;;
32228;SDS011;18717;48.034;11.186;2023-04-12T02:40:37;8.20;;;7.50;;
32228;SDS011;18717;48.034;11.186;2023-04-12T02:43:06;9.85;;;8.82;;
32228;SDS011;18717;48.034;11.186;2023-04-12T02:45:34;8.65;;;7.88;;
32228;SDS011;18717;48.034;11.186;2023-04-12T02:48:01;9.13;;;7.55;;
32228;SDS011;18717;48.034;11.186;2023-04-12T02:50:30;8.93;;;8.05;;
32228;SDS011;18717;48.034;11.186;2023-04-12T02:52:59;8.93;;;7.82;;
32228;SDS011;18717;48.034;11.186;2023-04-12T02:55:27;9.02;;;8.27;;
32228;SDS011;18717;48.034;11.186;2023-04-12T02:57:55;8.25;;;7.65;;
32228;SDS011;18717;48.034;11.186;2023-04-12T03:00:23;8.73;;;7.95;;
32228;SDS011;18717;48.034;11.186;2023-04-12T03:02:51;8.55;;;7.95;;
32228;SDS011;18717;48.034;11.186;2023-04-12T03:05:19;9.23;;;7.75;;
32228;SDS011;18717;48.034;11.186;2023-04-12T03:07:47;7.93;;;7.22;;
32228;SDS011;18717;48.034;11.186;2023-04-12T03:10:16;8.70;;;7.95;;
32228;SDS011;18717;48.034;11.186;2023-04-12T03:12:44;7.47;;;6.97;;
32228;SDS011;18717;48.034;11.186;2023-04-12T03:15:11;8.20;;;7.32;;
32228;SDS011;18717;48.034;11.186;2023-04-12T03:17:39;8.38;;;7.13;;
32228;SDS011;18717;48.034;11.186;2023-04-12T03:20:08;8.02;;;7.38;;
32228;SDS011;18717;48.034;11.186;2023-04-12T03:22:36;8.20;;;7.55;;
32228;SDS011;18717;48.034;11.186;2023-04-12T03:25:04;7.65;;;7.15;;
32228;SDS011;18717;48.034;11.186;2023-04-12T03:27:33;12.23;;;7.32;;
32228;SDS011;18717;48.034;11.186;2023-04-12T03:30:01;8.98;;;8.23;;
32228;SDS011;18717;48.034;11.186;2023-04-12T03:32:29;7.90;;;7.20;;
32228;SDS011;18717;48.034;11.186;2023-04-12T03:34:56;8.60;;;7.65;;
32228;SDS011;18717;48.034;11.186;2023-04-12T03:37:25;7.47;;;6.75;;
32228;SDS011;18717;48.034;11.186;2023-04-12T03:39:53;7.55;;;6.90;;
32228;SDS011;18717;48.034;11.186;2023-04-12T03:42:20;7.85;;;6.75;;
32228;SDS011;18717;48.034;11.186;2023-04-12T03:45:00;8.00;;;7.40;;
32228;SDS011;18717;48.034;11.186;2023-04-12T03:47:27;7.95;;;7.20;;
32228;SDS011;18717;48.034;11.186;2023-04-12T03:49:56;7.72;;;7.13;;
32228;SDS011;18717;48.034;11.186;2023-04-12T03:55:05;7.45;;;6.93;;
32228;SDS011;18717;48.034;11.186;2023-04-12T03:57:34;8.05;;;7.13;;
32228;SDS011;18717;48.034;11.186;2023-04-12T04:00:03;8.10;;;7.20;;
32228;SDS011;18717;48.034;11.186;2023-04-12T04:05:02;11.43;;;6.90;;
32228;SDS011;18717;48.034;11.186;2023-04-12T04:07:30;7.93;;;7.20;;
32228;SDS011;18717;48.034;11.186;2023-04-12T04:09:58;7.82;;;7.13;;
32228;SDS011;18717;48.034;11.186;2023-04-12T04:12:26;7.32;;;6.78;;
32228;SDS011;18717;48.034;11.186;2023-04-12T04:14:54;7.70;;;7.00;;
32228;SDS011;18717;48.034;11.186;2023-04-12T04:17:23;7.60;;;7.05;;
32228;SDS011;18717;48.034;11.186;2023-04-12T04:19:50;7.60;;;7.00;;
32228;SDS011;18717;48.034;11.186;2023-04-12T04:22:18;7.55;;;6.88;;
32228;SDS011;18717;48.034;11.186;2023-04-12T04:24:46;7.75;;;7.05;;
32228;SDS011;18717;48.034;11.186;2023-04-12T04:27:15;7.07;;;6.30;;
32228;SDS011;18717;48.034;11.186;2023-04-12T04:29:42;6.90;;;6.13;;
32228;SDS011;18717;48.034;11.186;2023-04-12T04:32:10;7.43;;;6.82;;
32228;SDS011;18717;48.034;11.186;2023-04-12T04:34:40;7.35;;;6.72;;
32228;SDS011;18717;48.034;11.186;2023-04-12T04:37:08;6.93;;;6.43;;
32228;SDS011;18717;48.034;11.186;2023-04-12T04:39:37;7.38;;;6.75;;
32228;SDS011;18717;48.034;11.186;2023-04-12T04:42:05;6.75;;;6.25;;
32228;SDS011;18717;48.034;11.186;2023-04-12T04:44:33;8.93;;;6.82;;
32228;SDS011;18717;48.034;11.186;2023-04-12T04:47:02;7.70;;;7.00;;
32228;SDS011;18717;48.034;11.186;2023-04-12T04:49:31;7.75;;;7.15;;
32228;SDS011;18717;48.034;11.186;2023-04-12T04:52:01;7.88;;;7.05;;
32228;SDS011;18717;48.034;11.186;2023-04-12T04:54:29;6.95;;;6.55;;
32228;SDS011;18717;48.034;11.186;2023-04-12T04:56:58;7.50;;;6.90;;
32228;SDS011;18717;48.034;11.186;2023-04-12T04:59:26;7.53;;;6.82;;
32228;SDS011;18717;48.034;11.186;2023-04-12T05:01:54;6.80;;;6.30;;
32228;SDS011;18717;48.034;11.186;2023-04-12T05:04:22;8.30;;;7.35;;
32228;SDS011;18717;48.034;11.186;2023-04-12T05:06:50;7.68;;;7.13;;
32228;SDS011;18717;48.034;11.186;2023-04-12T05:09:20;7.40;;;6.70;;
32228;SDS011;18717;48.034;11.186;2023-04-12T05:11:47;7.53;;;7.03;;
32228;SDS011;18717;48.034;11.186;2023-04-12T05:14:15;7.15;;;6.63;;
32228;SDS011;18717;48.034;11.186;2023-04-12T05:16:43;8.80;;;7.35;;
32228;SDS011;18717;48.034;11.186;2023-04-12T05:19:11;7.85;;;7.13;;
32228;SDS011;18717;48.034;11.186;2023-04-12T05:21:39;7.13;;;6.53;;
32228;SDS011;18717;48.034;11.186;2023-04-12T05:24:06;7.10;;;6.50;;
32228;SDS011;18717;48.034;11.186;2023-04-12T05:26:36;7.78;;;6.85;;
32228;SDS011;18717;48.034;11.186;2023-04-12T05:29:03;8.27;;;7.57;;
32228;SDS011;18717;48.034;11.186;2023-04-12T05:31:31;7.47;;;6.80;;
32228;SDS011;18717;48.034;11.186;2023-04-12T05:33:59;7.85;;;7.25;;
32228;SDS011;18717;48.034;11.186;2023-04-12T05:36:26;7.30;;;6.72;;
32228;SDS011;18717;48.034;11.186;2023-04-12T05:38:54;9.40;;;7.53;;
32228;SDS011;18717;48.034;11.186;2023-04-12T05:41:22;7.68;;;7.18;;
32228;SDS011;18717;48.034;11.186;2023-04-12T05:43:51;9.02;;;7.60;;
32228;SDS011;18717;48.034;11.186;2023-04-12T05:46:19;8.30;;;7.60;;
32228;SDS011;18717;48.034;11.186;2023-04-12T05:48:47;9.07;;;8.40;;
32228;SDS011;18717;48.034;11.186;2023-04-12T05:51:14;7.60;;;6.93;;
32228;SDS011;18717;48.034;11.186;2023-04-12T05:53:48;9.05;;;7.72;;
32228;SDS011;18717;48.034;11.186;2023-04-12T05:56:15;12.27;;;8.75;;
32228;SDS011;18717;48.034;11.186;2023-04-12T05:58:43;10.77;;;8.40;;
32228;SDS011;18717;48.034;11.186;2023-04-12T06:01:13;9.93;;;8.77;;
32228;SDS011;18717;48.034;11.186;2023-04-12T06:06:12;19.83;;;13.88;;
32228;SDS011;18717;48.034;11.186;2023-04-12T06:08:40;17.10;;;12.52;;
32228;SDS011;18717;48.034;11.186;2023-04-12T06:11:08;15.48;;;11.02;;
32228;SDS011;18717;48.034;11.186;2023-04-12T06:13:37;11.02;;;9.90;;
32228;SDS011;18717;48.034;11.186;2023-04-12T06:16:05;9.07;;;8.40;;
32228;SDS011;18717;48.034;11.186;2023-04-12T06:18:35;17.13;;;10.05;;
32228;SDS011;18717;48.034;11.186;2023-04-12T06:21:03;9.23;;;8.40;;
32228;SDS011;18717;48.034;11.186;2023-04-12T06:23:31;11.23;;;8.77;;
32228;SDS011;18717;48.034;11.186;2023-04-12T06:25:58;9.77;;;8.20;;
32228;SDS011;18717;48.034;11.186;2023-04-12T06:28:26;11.40;;;8.60;;
32228;SDS011;18717;48.034;11.186;2023-04-12T06:30:54;9.30;;;8.05;;
32228;SDS011;18717;48.034;11.186;2023-04-12T06:33:21;10.80;;;9.10;;
32228;SDS011;18717;48.034;11.186;2023-04-12T06:35:50;23.10;;;10.52;;
32228;SDS011;18717;48.034;11.186;2023-04-12T06:38:18;14.32;;;9.63;;
32228;SDS011;18717;48.034;11.186;2023-04-12T06:40:46;13.48;;;12.13;;
32228;SDS011;18717;48.034;11.186;2023-04-12T06:43:14;30.60;;;20.27;;
32228;SDS011;18717;48.034;11.186;2023-04-12T06:45:44;18.70;;;14.05;;
32228;SDS011;18717;48.034;11.186;2023-04-12T06:48:12;11.68;;;10.63;;
32228;SDS011;18717;48.034;11.186;2023-04-12T06:50:39;10.55;;;8.93;;
32228;SDS011;18717;48.034;11.186;2023-04-12T06:53:08;8.38;;;7.63;;
32228;SDS011;18717;48.034;11.186;2023-04-12T06:55:38;8.93;;;7.47;;
32228;SDS011;18717;48.034;11.186;2023-04-12T06:58:06;8.23;;;7.70;;
32228;SDS011;18717;48.034;11.186;2023-04-12T07:00:33;8.93;;;8.15;;
32228;SDS011;18717;48.034;11.186;2023-04-12T07:03:01;9.82;;;8.98;;
32228;SDS011;18717;48.034;11.186;2023-04-12T07:05:29;8.93;;;8.23;;
32228;SDS011;18717;48.034;11.186;2023-04-12T07:07:57;8.40;;;7.50;;
32228;SDS011;18717;48.034;11.186;2023-04-12T07:10:26;10.27;;;8.05;;
32228;SDS011;18717;48.034;11.186;2023-04-12T07:12:53;9.20;;;8.55;;
32228;SDS011;18717;48.034;11.186;2023-04-12T07:15:22;14.50;;;8.93;;
32228;SDS011;18717;48.034;11.186;2023-04-12T07:17:50;8.82;;;8.23;;
32228;SDS011;18717;48.034;11.186;2023-04-12T07:20:18;8.80;;;8.20;;
32228;SDS011;18717;48.034;11.186;2023-04-12T07:22:45;8.48;;;7.88;;
32228;SDS011;18717;48.034;11.186;2023-04-12T07:25:13;8.60;;;7.80;;
32228;SDS011;18717;48.034;11.186;2023-04-12T07:27:42;8.80;;;8.10;;
32228;SDS011;18717;48.034;11.186;2023-04-12T07:30:10;9.10;;;8.35;;
32228;SDS011;18717;48.034;11.186;2023-04-12T07:32:38;8.85;;;8.15;;
32228;SDS011;18717;48.034;11.186;2023-04-12T07:35:06;8.27;;;7.68;;
32228;SDS011;18717;48.034;11.186;2023-04-12T07:37:36;9.43;;;8.70;;
32228;SDS011;18717;48.034;11.186;2023-04-12T07:40:04;9.27;;;8.57;;
32228;SDS011;18717;48.034;11.186;2023-04-12T07:42:33;8.23;;;7.63;;
32228;SDS011;18717;48.034;11.186;2023-04-12T07:45:02;9.63;;;8.52;;
32228;SDS011;18717;48.034;11.186;2023-04-12T07:47:29;9.18;;;8.50;;
32228;SDS011;18717;48.034;11.186;2023-04-12T07:49:58;8.50;;;7.90;;
32228;SDS011;18717;48.034;11.186;2023-04-12T07:52:25;8.77;;;7.97;;
32228;SDS011;18717;48.034;11.186;2023-04-12T07:54:53;8.85;;;8.10;;
32228;SDS011;18717;48.034;11.186;2023-04-12T07:57:21;9.00;;;8.02;;
32228;SDS011;18717;48.034;11.186;2023-04-12T07:59:49;8.82;;;8.07;;
32228;SDS011;18717;48.034;11.186;2023-04-12T08:02:18;8.93;;;8.13;;
32228;SDS011;18717;48.034;11.186;2023-04-12T08:04:51;8.70;;;8.15;;
32228;SDS011;18717;48.034;11.186;2023-04-12T08:07:19;7.78;;;7.07;;
32228;SDS011;18717;48.034;11.186;2023-04-12T08:09:47;8.32;;;7.57;;
32228;SDS011;18717;48.034;11.186;2023-04-12T08:12:16;7.60;;;7.07;;
32228;SDS011;18717;48.034;11.186;2023-04-12T08:14:43;7.88;;;7.47;;
32228;SDS011;18717;48.034;11.186;2023-04-12T08:17:11;8.85;;;8.25;;
32228;SDS011;18717;48.034;11.186;2023-04-12T08:19:40;8.70;;;7.85;;
32228;SDS011;18717;48.034;11.186;2023-04-12T08:22:08;8.40;;;7.90;;
32228;SDS011;18717;48.034;11.186;2023-04-12T08:24:38;9.20;;;8.50;;
32228;SDS011;18717;48.034;11.186;2023-04-12T08:27:06;8.27;;;7.88;;
32228;SDS011;18717;48.034;11.186;2023-04-12T08:29:34;8.07;;;7.47;;
32228;SDS011;18717;48.034;11.186;2023-04-12T08:32:02;8.30;;;7.88;;
32228;SDS011;18717;48.034;11.186;2023-04-12T08:34:30;7.95;;;7.40;;
32228;SDS011;18717;48.034;11.186;2023-04-12T08:36:59;9.05;;;8.48;;
32228;SDS011;18717;48.034;11.186;2023-04-12T08:39:27;7.72;;;7.32;;
32228;SDS011;18717;48.034;11.186;2023-04-12T08:41:54;8.65;;;7.95;;
32228;SDS011;18717;48.034;11.186;2023-04-12T08:44:32;8.27;;;7.57;;
32228;SDS011;18717;48.034;11.186;2023-04-12T08:47:02;8.20;;;7.70;;
32228;SDS011;18717;48.034;11.186;2023-04-12T08:49:31;8.23;;;7.63;;
32228;SDS011;18717;48.034;11.186;2023-04-12T08:52:02;8.70;;;8.07;;
32228;SDS011;18717;48.034;11.186;2023-04-12T08:54:30;11.88;;;8.07;;
32228;SDS011;18717;48.034;11.186;2023-04-12T08:56:59;8.70;;;8.18;;
32228;SDS011;18717;48.034;11.186;2023-04-12T08:59:28;9.38;;;8.68;;
32228;SDS011;18717;48.034;11.186;2023-04-12T09:01:57;8.55;;;7.78;;
32228;SDS011;18717;48.034;11.186;2023-04-12T09:04:24;8.77;;;8.07;;
32228;SDS011;18717;48.034;11.186;2023-04-12T09:06:52;8.43;;;7.78;;
32228;SDS011;18717;48.034;11.186;2023-04-12T09:09:34;8.23;;;7.82;;
32228;SDS011;18717;48.034;11.186;2023-04-12T09:12:07;9.38;;;8.75;;
32228;SDS011;18717;48.034;11.186;2023-04-12T09:14:36;10.88;;;9.75;;
32228;SDS011;18717;48.034;11.186;2023-04-12T09:17:04;8.60;;;8.05;;
32228;SDS011;18717;48.034;11.186;2023-04-12T09:19:32;16.48;;;12.93;;
32228;SDS011;18717;48.034;11.186;2023-04-12T09:22:01;8.85;;;8.25;;
32228;SDS011;18717;48.034;11.186;2023-04-12T09:24:29;8.98;;;8.43;;
32228;SDS011;18717;48.034;11.186;2023-04-12T09:27:02;8.18;;;7.78;;
32228;SDS011;18717;48.034;11.186;2023-04-12T09:29:31;8.60;;;8.10;;
32228;SDS011;18717;48.034;11.186;2023-04-12T09:32:00;8.18;;;7.78;;
32228;SDS011;18717;48.034;11.186;2023-04-12T09:34:29;9.00;;;8.40;;
32228;SDS011;18717;48.034;11.186;2023-04-12T09:36:57;8.70;;;8.20;;
32228;SDS011;18717;48.034;11.186;2023-04-12T09:39:31;9.63;;;8.82;;
32228;SDS011;18717;48.034;11.186;2023-04-12T09:42:04;8.65;;;8.15;;
32228;SDS011;18717;48.034;11.186;2023-04-12T09:44:51;8.57;;;8.18;;
32228;SDS011;18717;48.034;11.186;2023-04-12T09:47:19;8.50;;;8.00;;
32228;SDS011;18717;48.034;11.186;2023-04-12T09:49:47;9.25;;;8.75;;
32228;SDS011;18717;48.034;11.186;2023-04-12T09:52:15;8.73;;;8.32;;
32228;SDS011;18717;48.034;11.186;2023-04-12T09:54:43;9.40;;;8.90;;
32228;SDS011;18717;48.034;11.186;2023-04-12T09:57:13;8.80;;;8.40;;
32228;SDS011;18717;48.034;11.186;2023-04-12T09:59:43;9.00;;;8.40;;
32228;SDS011;18717;48.034;11.186;2023-04-12T10:02:16;8.98;;;8.52;;
32228;SDS011;18717;48.034;11.186;2023-04-12T10:04:46;9.00;;;8.60;;
32228;SDS011;18717;48.034;11.186;2023-04-12T10:07:14;9.07;;;8.50;;
32228;SDS011;18717;48.034;11.186;2023-04-12T10:09:42;9.20;;;8.73;;
32228;SDS011;18717;48.034;11.186;2023-04-12T10:12:10;8.45;;;8.05;;
32228;SDS011;18717;48.034;11.186;2023-04-12T10:14:39;8.18;;;7.88;;
32228;SDS011;18717;48.034;11.186;2023-04-12T10:17:08;8.52;;;8.13;;
32228;SDS011;18717;48.034;11.186;2023-04-12T10:19:37;8.60;;;8.20;;
32228;SDS011;18717;48.034;11.186;2023-04-12T10:22:05;8.90;;;8.40;;
32228;SDS011;18717;48.034;11.186;2023-04-12T10:24:33;8.95;;;8.45;;
32228;SDS011;18717;48.034;11.186;2023-04-12T10:27:01;8.70;;;8.30;;
32228;SDS011;18717;48.034;11.186;2023-04-12T10:29:30;8.80;;;8.40;;
32228;SDS011;18717;48.034;11.186;2023-04-12T10:34:49;9.68;;;9.18;;
32228;SDS011;18717;48.034;11.186;2023-04-12T10:37:18;9.38;;;8.98;;
32228;SDS011;18717;48.034;11.186;2023-04-12T10:39:50;9.00;;;8.57;;
32228;SDS011;18717;48.034;11.186;2023-04-12T10:42:20;8.95;;;8.55;;
32228;SDS011;18717;48.034;11.186;2023-04-12T10:44:49;9.32;;;8.80;;
32228;SDS011;18717;48.034;11.186;2023-04-12T10:50:29;9.55;;;9.15;;
32228;SDS011;18717;48.034;11.186;2023-04-12T10:55:48;9.10;;;8.70;;
32228;SDS011;18717;48.034;11.186;2023-04-12T11:01:21;9.50;;;9.10;;
32228;SDS011;18717;48.034;11.186;2023-04-12T11:04:06;10.18;;;9.77;;
32228;SDS011;18717;48.034;11.186;2023-04-12T11:06:39;9.63;;;9.23;;
32228;SDS011;18717;48.034;11.186;2023-04-12T11:09:25;10.07;;;9.68;;
32228;SDS011;18717;48.034;11.186;2023-04-12T11:11:57;10.02;;;9.57;;
32228;SDS011;18717;48.034;11.186;2023-04-12T11:14:42;9.70;;;9.30;;
32228;SDS011;18717;48.034;11.186;2023-04-12T11:17:23;10.00;;;9.40;;
32228;SDS011;18717;48.034;11.186;2023-04-12T11:19:54;10.32;;;9.93;;
32228;SDS011;18717;48.034;11.186;2023-04-12T11:22:24;9.95;;;9.52;;
32228;SDS011;18717;48.034;11.186;2023-04-12T11:24:54;9.43;;;9.02;;
32228;SDS011;18717;48.034;11.186;2023-04-12T11:27:23;10.05;;;9.65;;
32228;SDS011;18717;48.034;11.186;2023-04-12T11:29:53;9.55;;;8.95;;
32228;SDS011;18717;48.034;11.186;2023-04-12T11:32:22;9.95;;;9.55;;
32228;SDS011;18717;48.034;11.186;2023-04-12T11:34:52;9.77;;;9.25;;
32228;SDS011;18717;48.034;11.186;2023-04-12T11:37:22;9.75;;;9.35;;
32228;SDS011;18717;48.034;11.186;2023-04-12T11:39:52;10.18;;;9.68;;
32228;SDS011;18717;48.034;11.186;2023-04-12T11:42:22;10.20;;;9.68;;
32228;SDS011;18717;48.034;11.186;2023-04-12T11:44:50;10.15;;;9.65;;
32228;SDS011;18717;48.034;11.186;2023-04-12T11:47:25;9.77;;;9.38;;
32228;SDS011;18717;48.034;11.186;2023-04-12T11:49:55;10.15;;;9.60;;
32228;SDS011;18717;48.034;11.186;2023-04-12T11:52:26;9.75;;;9.35;;
32228;SDS011;18717;48.034;11.186;2023-04-12T11:54:55;10.23;;;9.73;;
32228;SDS011;18717;48.034;11.186;2023-04-12T11:57:25;10.73;;;10.05;;
32228;SDS011;18717;48.034;11.186;2023-04-12T11:59:55;10.70;;;10.30;;
32228;SDS011;18717;48.034;11.186;2023-04-12T12:02:23;9.95;;;9.55;;
32228;SDS011;18717;48.034;11.186;2023-04-12T12:04:58;10.75;;;10.25;;
32228;SDS011;18717;48.034;11.186;2023-04-12T12:07:26;10.77;;;10.07;;
32228;SDS011;18717;48.034;11.186;2023-04-12T12:09:55;10.52;;;9.82;;
32228;SDS011;18717;48.034;11.186;2023-04-12T12:12:23;10.85;;;10.35;;
32228;SDS011;18717;48.034;11.186;2023-04-12T12:14:51;10.48;;;10.00;;
32228;SDS011;18717;48.034;11.186;2023-04-12T12:17:18;10.73;;;10.23;;
32228;SDS011;18717;48.034;11.186;2023-04-12T12:19:46;10.35;;;9.95;;
32228;SDS011;18717;48.034;11.186;2023-04-12T12:22:16;10.77;;;10.18;;
32228;SDS011;18717;48.034;11.186;2023-04-12T12:24:49;11.25;;;10.68;;
32228;SDS011;18717;48.034;11.186;2023-04-12T12:27:18;11.05;;;10.35;;
32228;SDS011;18717;48.034;11.186;2023-04-12T12:29:50;11.23;;;10.63;;
32228;SDS011;18717;48.034;11.186;2023-04-12T12:32:19;11.32;;;10.73;;
32228;SDS011;18717;48.034;11.186;2023-04-12T12:34:49;10.68;;;10.18;;
32228;SDS011;18717;48.034;11.186;2023-04-12T12:37:29;11.18;;;10.57;;
32228;SDS011;18717;48.034;11.186;2023-04-12T12:40:00;11.40;;;10.70;;
32228;SDS011;18717;48.034;11.186;2023-04-12T12:42:32;14.75;;;13.57;;
32228;SDS011;18717;48.034;11.186;2023-04-12T12:45:01;11.63;;;10.88;;
32228;SDS011;18717;48.034;11.186;2023-04-12T12:47:29;13.23;;;12.27;;
32228;SDS011;18717;48.034;11.186;2023-04-12T12:49:57;13.02;;;12.00;;
32228;SDS011;18717;48.034;11.186;2023-04-12T12:52:25;10.63;;;10.05;;
32228;SDS011;18717;48.034;11.186;2023-04-12T12:54:54;10.65;;;10.10;;
32228;SDS011;18717;48.034;11.186;2023-04-12T12:57:22;10.40;;;9.90;;
32228;SDS011;18717;48.034;11.186;2023-04-12T12:59:49;10.70;;;10.05;;
32228;SDS011;18717;48.034;11.186;2023-04-12T13:02:17;10.40;;;9.75;;
32228;SDS011;18717;48.034;11.186;2023-04-12T13:04:45;11.18;;;10.50;;
32228;SDS011;18717;48.034;11.186;2023-04-12T13:07:13;11.30;;;10.70;;
32228;SDS011;18717;48.034;11.186;2023-04-12T13:09:40;10.82;;;10.13;;
32228;SDS011;18717;48.034;11.186;2023-04-12T13:12:09;11.20;;;10.60;;
32228;SDS011;18717;48.034;11.186;2023-04-12T13:14:40;10.25;;;9.85;;
32228;SDS011;18717;48.034;11.186;2023-04-12T13:17:08;11.15;;;10.55;;
32228;SDS011;18717;48.034;11.186;2023-04-12T13:19:35;11.05;;;10.55;;
32228;SDS011;18717;48.034;11.186;2023-04-12T13:22:03;10.73;;;10.20;;
32228;SDS011;18717;48.034;11.186;2023-04-12T13:24:32;10.70;;;10.00;;
32228;SDS011;18717;48.034;11.186;2023-04-12T13:27:01;10.60;;;10.00;;
32228;SDS011;18717;48.034;11.186;2023-04-12T13:29:30;10.45;;;9.90;;
32228;SDS011;18717;48.034;11.186;2023-04-12T13:31:58;11.05;;;10.45;;
32228;SDS011;18717;48.034;11.186;2023-04-12T13:34:25;10.93;;;10.32;;
32228;SDS011;18717;48.034;11.186;2023-04-12T13:36:53;11.52;;;10.93;;
32228;SDS011;18717;48.034;11.186;2023-04-12T13:39:21;11.13;;;10.27;;
32228;SDS011;18717;48.034;11.186;2023-04-12T13:41:49;10.90;;;10.40;;
32228;SDS011;18717;48.034;11.186;2023-04-12T13:44:16;10.68;;;9.98;;
32228;SDS011;18717;48.034;11.186;2023-04-12T13:46:45;10.48;;;9.98;;
32228;SDS011;18717;48.034;11.186;2023-04-12T13:49:13;10.75;;;10.18;;
32228;SDS011;18717;48.034;11.186;2023-04-12T13:51:41;10.98;;;10.07;;
32228;SDS011;18717;48.034;11.186;2023-04-12T13:54:08;10.32;;;9.82;;
32228;SDS011;18717;48.034;11.186;2023-04-12T13:56:36;10.65;;;10.05;;
32228;SDS011;18717;48.034;11.186;2023-04-12T13:59:03;10.60;;;9.90;;
32228;SDS011;18717;48.034;11.186;2023-04-12T14:01:31;10.70;;;10.20;;
32228;SDS011;18717;48.034;11.186;2023-04-12T14:04:00;11.38;;;10.57;;
32228;SDS011;18717;48.034;11.186;2023-04-12T14:06:29;11.05;;;10.45;;
32228;SDS011;18717;48.034;11.186;2023-04-12T14:08:57;11.05;;;10.45;;
32228;SDS011;18717;48.034;11.186;2023-04-12T14:11:25;11.25;;;10.40;;
32228;SDS011;18717;48.034;11.186;2023-04-12T14:13:53;10.88;;;10.30;;
32228;SDS011;18717;48.034;11.186;2023-04-12T14:16:20;11.15;;;10.50;;
32228;SDS011;18717;48.034;11.186;2023-04-12T14:18:48;10.93;;;10.35;;
32228;SDS011;18717;48.034;11.186;2023-04-12T14:21:17;10.73;;;10.20;;
32228;SDS011;18717;48.034;11.186;2023-04-12T14:23:44;10.73;;;10.25;;
32228;SDS011;18717;48.034;11.186;2023-04-12T14:26:12;10.80;;;10.20;;
32228;SDS011;18717;48.034;11.186;2023-04-12T14:28:42;10.93;;;10.38;;
32228;SDS011;18717;48.034;11.186;2023-04-12T14:31:09;10.75;;;10.25;;
32228;SDS011;18717;48.034;11.186;2023-04-12T14:33:40;10.38;;;9.68;;
32228;SDS011;18717;48.034;11.186;2023-04-12T14:36:07;10.60;;;10.07;;
32228;SDS011;18717;48.034;11.186;2023-04-12T14:38:37;11.02;;;10.43;;
32228;SDS011;18717;48.034;11.186;2023-04-12T14:41:05;11.30;;;10.35;;
32228;SDS011;18717;48.034;11.186;2023-04-12T14:43:33;10.93;;;10.50;;
32228;SDS011;18717;48.034;11.186;2023-04-12T14:46:01;11.07;;;10.38;;
32228;SDS011;18717;48.034;11.186;2023-04-12T14:48:29;10.60;;;10.10;;
32228;SDS011;18717;48.034;11.186;2023-04-12T14:50:56;10.35;;;9.77;;
32228;SDS011;18717;48.034;11.186;2023-04-12T14:53:24;11.90;;;10.13;;
32228;SDS011;18717;48.034;11.186;2023-04-12T14:55:53;10.32;;;9.88;;
32228;SDS011;18717;48.034;11.186;2023-04-12T14:58:21;10.88;;;10.38;;
32228;SDS011;18717;48.034;11.186;2023-04-12T15:00:48;10.70;;;10.20;;